DNEN

Akanu Ibiam International Airport

Enegu, Nigeria
METAR DNEN 160500Z 31003KT 4000 HZ NSC 21/20 Q1013
Observed Flight Rules
Dec-16 @ 05:00 UTC (60 minutes ago) Instrument Flight Rules
Wind Visibility Clouds Conditions
310° at 3 knots 4,007 meters
  • Clear skies
  • Haze
Temperatures Readings
Current 21°C / 70°F
Dewpoint 20°C / 68°F
Humidity 94%
Altimeter 29.91" Hg
Pressure 1013 hPa
Elevation 137
METAR DNEN 160500Z 31003KT 4000 HZ NSC 21/20 Q1013
Observed Flight Rules
Dec-16 @ 05:00 UTC
(60 minutes ago)
IFR
Wind Visibility
310° at 3 knots 4,007 meters
Clouds
  • Clear skies
Conditions
  • Haze
Temperature Dewpoint
21°C / 70°F 20°C / 68°F
Humidity Altimeter Pressure
94% 29.91" Hg 1013 hPa